createdAt,value
2022-11-05T00:01:41.584Z,99229.03
2022-11-05T00:04:42.354Z,99220.22
2022-11-05T00:07:34.258Z,99208.09
2022-11-05T00:10:07.300Z,99211.19
2022-11-05T00:12:52.739Z,99207.41
2022-11-05T00:15:37.868Z,99212.47
2022-11-05T00:18:06.295Z,99212.56
2022-11-05T00:20:34.679Z,99216.84
2022-11-05T00:23:20.638Z,99213.84
2022-11-05T00:25:57.597Z,99206.34
2022-11-05T00:28:26.044Z,99205.91
2022-11-05T00:30:54.767Z,99208.56
2022-11-05T00:33:22.785Z,99206.03
2022-11-05T00:35:51.372Z,99206.81
2022-11-05T00:38:19.466Z,99202.00
2022-11-05T00:40:47.711Z,99203.13
2022-11-05T00:43:34.423Z,99197.28
2022-11-05T00:46:02.473Z,99195.03
2022-11-05T00:48:47.830Z,99198.25
2022-11-05T00:51:15.881Z,99203.31
2022-11-05T00:53:44.033Z,99201.22
2022-11-05T00:56:12.125Z,99208.53
2022-11-05T00:58:41.584Z,99210.81
2022-11-05T01:01:12.219Z,99196.47
2022-11-05T01:03:45.149Z,99197.78
2022-11-05T01:06:18.574Z,99192.19
2022-11-05T01:08:47.673Z,99191.94
2022-11-05T01:11:33.678Z,99195.97
2022-11-05T01:14:05.228Z,99186.19
2022-11-05T01:16:33.670Z,99187.81
2022-11-05T01:19:02.231Z,99183.03
2022-11-05T01:21:30.368Z,99197.13
2022-11-05T01:23:58.678Z,99194.19
2022-11-05T01:26:27.872Z,99185.19
2022-11-05T01:28:57.715Z,99173.94
2022-11-05T01:31:28.695Z,99169.66
2022-11-05T01:33:56.855Z,99161.78
2022-11-05T01:36:24.895Z,99156.75
2022-11-05T01:38:52.919Z,99161.91
2022-11-05T01:41:21.068Z,99155.97
2022-11-05T01:43:51.784Z,99152.81
2022-11-05T01:46:23.199Z,99151.94
2022-11-05T01:48:58.569Z,99153.09
2022-11-05T01:51:30.239Z,99152.47
2022-11-05T01:54:02.415Z,99144.53
2022-11-05T01:56:33.506Z,99144.72
2022-11-05T01:59:04.774Z,99145.94
2022-11-05T02:01:33.398Z,99143.56
2022-11-05T02:04:05.625Z,99144.91
2022-11-05T02:06:38.003Z,99144.81
2022-11-05T02:09:10.068Z,99143.22
2022-11-05T02:11:38.157Z,99132.78
2022-11-05T02:14:07.023Z,99130.78
2022-11-05T02:16:41.600Z,99133.81
2022-11-05T02:19:46.188Z,99135.13
2022-11-05T02:22:39.048Z,99137.41
2022-11-05T02:25:25.408Z,99131.38
2022-11-05T02:28:18.089Z,99125.19
2022-11-05T02:30:55.078Z,99133.38
2022-11-05T02:33:43.011Z,99124.03
2022-11-05T02:36:26.274Z,99126.66
2022-11-05T02:39:08.333Z,99126.13
2022-11-05T02:41:47.226Z,99127.28
2022-11-05T02:44:24.189Z,99127.34
2022-11-05T02:46:59.675Z,99127.09
2022-11-05T02:49:37.935Z,99130.84
2022-11-05T02:52:10.756Z,99129.97
2022-11-05T02:54:43.993Z,99132.56
2022-11-05T02:57:12.052Z,99130.69
2022-11-05T02:59:40.179Z,99132.63
2022-11-05T03:02:09.945Z,99134.22
2022-11-05T03:04:38.084Z,99143.22
2022-11-05T03:07:29.426Z,99144.03
2022-11-05T03:10:14.806Z,99139.66
2022-11-05T03:12:53.494Z,99143.59
2022-11-05T03:15:34.563Z,99149.09
2022-11-05T03:18:13.103Z,99144.38
2022-11-05T03:20:48.382Z,99138.34
2022-11-05T03:23:25.579Z,99135.66
2022-11-05T03:26:00.095Z,99140.28
2022-11-05T03:28:30.990Z,99142.81
2022-11-05T03:31:00.429Z,99135.94
2022-11-05T03:33:34.784Z,99138.09
2022-11-05T03:36:08.389Z,99137.31
2022-11-05T03:38:41.804Z,99139.28
2022-11-05T03:41:13.243Z,99144.56
2022-11-05T03:43:46.236Z,99136.59
2022-11-05T03:46:19.740Z,99134.13
2022-11-05T03:48:53.064Z,99130.53
2022-11-05T03:51:30.815Z,99135.94
2022-11-05T03:54:01.328Z,99131.91
2022-11-05T03:56:34.252Z,99128.53
2022-11-05T03:59:03.931Z,99128.09
2022-11-05T04:01:33.908Z,99127.50
2022-11-05T04:04:03.643Z,99131.34
2022-11-05T04:06:49.067Z,99129.88
2022-11-05T04:09:34.749Z,99126.63
2022-11-05T04:12:20.605Z,99131.91
2022-11-05T04:14:50.543Z,99126.34
2022-11-05T04:17:17.600Z,99133.22
2022-11-05T04:20:04.886Z,99127.34
2022-11-05T04:22:52.251Z,99131.97
2022-11-05T04:25:21.838Z,99133.22
2022-11-05T04:27:51.091Z,99128.38
2022-11-05T04:30:19.498Z,99137.94
2022-11-05T04:32:59.944Z,99132.81
2022-11-05T04:35:31.446Z,99147.31
2022-11-05T04:37:59.569Z,99163.75
2022-11-05T04:40:28.118Z,99159.56
2022-11-05T04:42:56.783Z,99163.88
2022-11-05T04:45:25.198Z,99163.28
2022-11-05T04:47:54.307Z,99172.06
2022-11-05T04:50:23.034Z,99172.38
2022-11-05T04:52:52.476Z,99177.09
2022-11-05T04:55:20.742Z,99164.84
2022-11-05T04:57:50.499Z,99170.06
2022-11-05T05:00:19.552Z,99178.38
2022-11-05T05:02:48.851Z,99175.34
2022-11-05T05:05:17.042Z,99177.38
2022-11-05T05:07:45.107Z,99191.63
2022-11-05T05:10:14.605Z,99191.19
2022-11-05T05:12:42.699Z,99187.56
2022-11-05T05:15:10.795Z,99186.34
2022-11-05T05:17:39.697Z,99200.19
2022-11-05T05:20:25.801Z,99204.13
2022-11-05T05:22:54.629Z,99196.94
2022-11-05T05:25:24.361Z,99189.16
2022-11-05T05:27:52.701Z,99199.06
2022-11-05T05:30:20.840Z,99201.88
2022-11-05T05:32:49.682Z,99203.44
2022-11-05T05:35:18.172Z,99206.59
2022-11-05T05:37:46.359Z,99202.53
2022-11-05T05:40:14.579Z,99198.16
2022-11-05T05:42:44.487Z,99212.22
2022-11-05T05:45:14.187Z,99207.84
2022-11-05T05:47:42.259Z,99207.03
2022-11-05T05:50:10.333Z,99208.25
2022-11-05T05:52:38.517Z,99204.69
2022-11-05T05:55:07.345Z,99209.50
2022-11-05T05:57:35.618Z,99203.75
2022-11-05T06:00:06.222Z,99206.22
2022-11-05T06:02:34.428Z,99206.31
2022-11-05T06:05:02.587Z,99211.38
2022-11-05T06:07:35.966Z,99214.75
2022-11-05T06:10:05.802Z,99222.34
2022-11-05T06:12:34.052Z,99224.56
2022-11-05T06:15:02.093Z,99228.78
2022-11-05T06:17:31.558Z,99232.22
2022-11-05T06:19:59.559Z,99229.28
2022-11-05T06:22:27.591Z,99242.19
2022-11-05T06:24:55.580Z,99235.50
2022-11-05T06:27:23.730Z,99234.81
2022-11-05T06:29:51.799Z,99235.06
2022-11-05T06:32:20.033Z,99235.94
2022-11-05T06:34:49.497Z,99243.56
2022-11-05T06:37:17.648Z,99247.50
2022-11-05T06:39:45.722Z,99239.81
2022-11-05T06:42:18.668Z,99241.38
2022-11-05T06:44:47.245Z,99246.63
2022-11-05T06:47:15.646Z,99239.28
2022-11-05T06:49:43.775Z,99245.22
2022-11-05T06:52:13.980Z,99240.31
2022-11-05T06:54:42.472Z,99241.88
2022-11-05T06:57:10.888Z,99249.53
2022-11-05T06:59:39.423Z,99243.34
2022-11-05T07:02:08.115Z,99243.00
2022-11-05T07:04:36.432Z,99247.81
2022-11-05T07:07:04.879Z,99248.59
2022-11-05T07:09:34.449Z,99249.16
2022-11-05T07:12:02.478Z,99253.25
2022-11-05T07:14:30.745Z,99248.78
2022-11-05T07:16:59.218Z,99243.59
2022-11-05T07:19:27.307Z,99240.28
2022-11-05T07:21:55.261Z,99230.69
2022-11-05T07:24:23.231Z,99229.94
2022-11-05T07:26:52.676Z,99236.03
2022-11-05T07:29:20.765Z,99222.13
2022-11-05T07:31:48.834Z,99224.56
2022-11-05T07:34:16.837Z,99213.75
2022-11-05T07:36:45.108Z,99206.75
2022-11-05T07:39:13.188Z,99204.03
2022-11-05T07:41:41.194Z,99197.00
2022-11-05T07:44:11.729Z,99200.06
2022-11-05T07:46:39.833Z,99203.44
2022-11-05T07:49:07.840Z,99195.97
2022-11-05T07:51:36.220Z,99192.38
2022-11-05T07:54:04.671Z,99184.03
2022-11-05T07:56:32.867Z,99196.63
2022-11-05T07:59:01.367Z,99190.97
2022-11-05T08:01:31.218Z,99183.44
2022-11-05T08:03:59.426Z,99190.81
2022-11-05T08:06:27.811Z,99186.16
2022-11-05T08:08:56.036Z,99173.63
2022-11-05T08:11:24.427Z,99190.03
2022-11-05T08:13:52.394Z,99184.81
2022-11-05T08:16:21.134Z,99188.81
2022-11-05T08:18:50.827Z,99186.69
2022-11-05T08:21:18.866Z,99178.88
2022-11-05T08:23:47.630Z,99183.19
2022-11-05T08:26:15.758Z,99186.34
2022-11-05T08:28:43.850Z,99181.34
2022-11-05T08:31:12.133Z,99188.41
2022-11-05T08:33:40.173Z,99190.78
2022-11-05T08:36:09.836Z,99187.41
2022-11-05T08:38:38.011Z,99195.88
2022-11-05T08:41:06.189Z,99193.56
2022-11-05T08:43:34.323Z,99181.53
2022-11-05T08:46:02.771Z,99187.84
2022-11-05T08:48:30.849Z,99182.84
2022-11-05T08:51:01.927Z,99179.13
2022-11-05T08:53:31.379Z,99172.28
2022-11-05T08:56:00.649Z,99172.25
2022-11-05T08:58:29.112Z,99171.88
2022-11-05T09:01:03.374Z,99172.25
2022-11-05T09:03:32.663Z,99158.56
2022-11-05T09:06:00.715Z,99174.59
2022-11-05T09:08:29.010Z,99170.69
2022-11-05T09:10:58.497Z,99158.28
2022-11-05T09:13:27.190Z,99158.41
2022-11-05T09:15:55.626Z,99161.59
2022-11-05T09:18:23.827Z,99163.16
2022-11-05T09:20:51.922Z,99156.94
2022-11-05T09:23:19.997Z,99160.53
2022-11-05T09:25:48.110Z,99144.22
2022-11-05T09:28:20.316Z,99142.31
2022-11-05T09:30:50.012Z,99153.69
2022-11-05T09:33:19.425Z,99148.59
2022-11-05T09:35:47.763Z,99142.72
2022-11-05T09:38:16.300Z,99145.06
2022-11-05T09:40:54.363Z,99139.25
2022-11-05T09:43:31.961Z,99135.75
2022-11-05T09:46:05.956Z,99135.38
2022-11-05T09:48:35.413Z,99124.84
2022-11-05T09:51:06.087Z,99123.69
2022-11-05T09:53:40.094Z,99123.66
2022-11-05T09:56:19.327Z,99121.34
2022-11-05T09:58:51.928Z,99124.81
2022-11-05T10:01:25.460Z,99111.16
2022-11-05T10:03:57.213Z,99106.47
2022-11-05T10:06:28.077Z,99110.72
2022-11-05T10:09:03.479Z,99103.28
2022-11-05T10:11:36.876Z,99092.72
2022-11-05T10:14:13.851Z,99088.78
2022-11-05T10:16:44.972Z,99091.09
2022-11-05T10:19:22.047Z,99085.22
2022-11-05T10:22:06.104Z,99082.00
2022-11-05T10:24:35.002Z,99089.81
2022-11-05T10:27:03.569Z,99078.91
2022-11-05T10:29:36.207Z,99089.00
2022-11-05T10:32:07.577Z,99078.19
2022-11-05T10:34:38.458Z,99085.16
2022-11-05T10:37:07.140Z,99082.81
2022-11-05T10:39:36.043Z,99073.75
2022-11-05T10:42:25.201Z,99068.56
2022-11-05T10:45:01.177Z,99077.06
2022-11-05T10:47:52.032Z,99075.50
2022-11-05T10:50:22.806Z,99078.34
2022-11-05T10:52:58.516Z,99064.72
2022-11-05T10:55:30.269Z,99070.97
2022-11-05T10:58:09.962Z,99072.50
2022-11-05T11:00:39.752Z,99056.91
2022-11-05T11:03:35.598Z,99055.34
2022-11-05T11:06:07.775Z,99057.63
2022-11-05T11:08:37.827Z,99047.50
2022-11-05T11:11:09.102Z,99043.09
2022-11-05T11:13:53.187Z,99040.03
2022-11-05T11:16:24.798Z,99037.13
2022-11-05T11:18:55.405Z,99032.81
2022-11-05T11:21:26.372Z,99034.47
2022-11-05T11:23:58.960Z,99037.91
2022-11-05T11:26:30.170Z,99035.47
2022-11-05T11:29:01.679Z,99022.56
2022-11-05T11:31:33.565Z,99014.59
2022-11-05T11:34:07.681Z,99014.03
2022-11-05T11:36:39.721Z,99007.34
2022-11-05T11:39:12.982Z,99008.66
2022-11-05T11:41:44.204Z,99015.66
2022-11-05T11:44:17.681Z,99012.16
2022-11-05T11:46:51.927Z,99012.97
2022-11-05T11:49:34.529Z,99012.97
2022-11-05T11:52:06.581Z,99015.28
2022-11-05T11:54:36.005Z,99011.34
2022-11-05T11:57:04.703Z,99007.00
2022-11-05T12:00:02.389Z,98999.41
2022-11-05T12:02:54.851Z,98997.09
2022-11-05T12:05:38.336Z,98995.59
2022-11-05T12:08:22.144Z,99001.81
2022-11-05T12:11:00.088Z,99005.34
2022-11-05T12:13:57.176Z,98996.25
2022-11-05T12:16:45.662Z,98992.22
2022-11-05T12:19:33.060Z,98993.72
2022-11-05T12:22:07.043Z,98998.63
2022-11-05T12:25:07.230Z,98995.53
2022-11-05T12:27:51.443Z,98999.09
2022-11-05T12:30:21.787Z,99000.94
2022-11-05T12:33:15.216Z,98992.81
2022-11-05T12:36:03.946Z,98998.28
2022-11-05T12:38:50.033Z,99002.66
2022-11-05T12:41:26.856Z,98991.25
2022-11-05T12:44:10.202Z,99000.38
2022-11-05T12:46:47.733Z,98988.63
2022-11-05T12:49:33.859Z,98982.97
2022-11-05T12:52:16.532Z,98984.06
2022-11-05T12:55:01.201Z,98980.84
2022-11-05T12:57:31.045Z,98991.19
2022-11-05T13:00:07.669Z,98992.31
2022-11-05T13:02:41.875Z,98984.50
2022-11-05T13:05:17.678Z,98969.56
2022-11-05T13:07:52.612Z,98978.13
2022-11-05T13:10:29.146Z,98988.66
2022-11-05T13:13:06.135Z,98974.53
2022-11-05T13:15:40.006Z,98981.72
2022-11-05T13:18:14.824Z,98978.00
2022-11-05T13:20:48.030Z,98986.34
2022-11-05T13:23:24.231Z,98997.66
2022-11-05T13:25:57.033Z,98991.94
2022-11-05T13:28:37.113Z,98990.81
2022-11-05T13:31:11.309Z,98991.00
2022-11-05T13:33:43.780Z,98996.03
2022-11-05T13:36:33.324Z,98998.44
2022-11-05T13:39:10.960Z,98987.09
2022-11-05T13:42:11.234Z,98996.16
2022-11-05T13:45:06.713Z,98995.06
2022-11-05T13:47:54.806Z,98991.94
2022-11-05T13:51:01.458Z,98996.16
2022-11-05T13:54:00.500Z,98995.44
2022-11-05T13:56:47.938Z,99010.75
2022-11-05T13:59:46.569Z,99009.97
2022-11-05T14:02:19.169Z,99011.94
2022-11-05T14:04:49.102Z,99011.94
2022-11-05T14:07:22.715Z,99009.25
2022-11-05T14:09:56.344Z,99017.47
2022-11-05T14:12:31.181Z,99021.00
2022-11-05T14:15:06.201Z,99012.41
2022-11-05T14:17:54.418Z,99010.78
2022-11-05T14:21:02.267Z,99018.28
2022-11-05T14:23:51.977Z,99019.50
2022-11-05T14:26:24.067Z,99010.94
2022-11-05T14:29:25.170Z,99021.53
2022-11-05T14:32:08.898Z,99017.66
2022-11-05T14:34:49.717Z,99018.34
2022-11-05T14:37:28.002Z,99021.56
2022-11-05T14:39:58.042Z,99032.97
2022-11-05T14:42:29.316Z,99022.81
2022-11-05T14:45:03.448Z,99019.38
2022-11-05T14:47:36.951Z,99026.47
2022-11-05T14:50:11.671Z,99018.31
2022-11-05T14:52:41.844Z,99017.97
2022-11-05T14:55:27.506Z,99016.47
2022-11-05T14:58:34.136Z,99020.09
2022-11-05T15:01:05.442Z,99008.41
2022-11-05T15:03:47.475Z,99007.22
2022-11-05T15:06:35.017Z,99010.81
2022-11-05T15:09:33.833Z,99006.56
2022-11-05T15:12:15.564Z,99014.84
2022-11-05T15:14:56.108Z,99022.75
2022-11-05T15:17:30.323Z,99027.47
2022-11-05T15:20:17.909Z,99019.25
2022-11-05T15:22:49.533Z,99021.28
2022-11-05T15:25:24.681Z,99022.88
2022-11-05T15:28:06.022Z,99023.66
2022-11-05T15:30:34.193Z,99026.00
2022-11-05T15:33:20.094Z,99024.03
2022-11-05T15:35:48.654Z,99022.88
2022-11-05T15:38:27.538Z,99029.91
2022-11-05T15:41:01.179Z,99026.81
2022-11-05T15:43:29.548Z,99025.59
2022-11-05T15:46:02.347Z,99018.19
2022-11-05T15:48:32.662Z,99029.88
2022-11-05T15:51:01.261Z,99029.97
2022-11-05T15:53:51.502Z,99029.63
2022-11-05T15:56:29.409Z,99040.19
2022-11-05T15:59:02.094Z,99032.41
2022-11-05T16:01:33.168Z,99037.47
2022-11-05T16:04:12.597Z,99039.44
2022-11-05T16:06:43.991Z,99035.53
2022-11-05T16:09:23.216Z,99034.00
2022-11-05T16:12:12.979Z,99045.69
2022-11-05T16:14:41.947Z,99039.47
2022-11-05T16:17:20.970Z,99037.50
2022-11-05T16:19:51.549Z,99048.81
2022-11-05T16:22:20.140Z,99051.94
2022-11-05T16:24:50.504Z,99057.78
2022-11-05T16:27:21.175Z,99065.56
2022-11-05T16:29:52.338Z,99065.94
2022-11-05T16:32:30.227Z,99067.88
2022-11-05T16:35:02.346Z,99065.94
2022-11-05T16:37:38.000Z,99067.09
2022-11-05T16:40:14.093Z,99058.91
2022-11-05T16:42:43.039Z,99070.97
2022-11-05T16:45:14.947Z,99070.59
2022-11-05T16:47:43.992Z,99064.31
2022-11-05T16:50:25.316Z,99063.97
2022-11-05T16:52:53.997Z,99064.34
2022-11-05T16:55:21.976Z,99069.03
2022-11-05T16:57:53.551Z,99075.22
2022-11-05T17:00:22.739Z,99069.75
2022-11-05T17:02:51.355Z,99084.94
2022-11-05T17:05:24.595Z,99084.53
2022-11-05T17:07:56.230Z,99083.75
2022-11-05T17:10:26.392Z,99091.53
2022-11-05T17:12:54.895Z,99089.16
2022-11-05T17:15:26.335Z,99079.81
2022-11-05T17:17:55.380Z,99082.91
2022-11-05T17:20:40.268Z,99084.06
2022-11-05T17:23:10.968Z,99089.47
2022-11-05T17:25:40.212Z,99084.38
2022-11-05T17:28:09.939Z,99095.25
2022-11-05T17:30:41.168Z,99098.72
2022-11-05T17:33:10.347Z,99098.69
2022-11-05T17:35:41.316Z,99099.47
2022-11-05T17:38:09.669Z,99099.06
2022-11-05T17:40:38.330Z,99103.66
2022-11-05T17:43:07.359Z,99095.88
2022-11-05T17:45:35.571Z,99088.91
2022-11-05T17:48:05.218Z,99089.66
2022-11-05T17:50:33.254Z,99091.97
2022-11-05T17:53:02.647Z,99096.56
2022-11-05T17:55:30.724Z,99092.25
2022-11-05T17:57:58.917Z,99091.47
2022-11-05T18:00:27.653Z,99099.63
2022-11-05T18:02:55.856Z,99102.81
2022-11-05T18:05:27.837Z,99091.13
2022-11-05T18:07:56.493Z,99098.88
2022-11-05T18:10:26.332Z,99100.81
2022-11-05T18:12:54.333Z,99099.28
2022-11-05T18:15:22.638Z,99094.13
2022-11-05T18:17:50.946Z,99097.22
2022-11-05T18:20:20.657Z,99100.31
2022-11-05T18:22:51.291Z,99080.16
2022-11-05T18:25:19.801Z,99090.97
2022-11-05T18:27:49.162Z,99092.13
2022-11-05T18:30:17.356Z,99097.97
2022-11-05T18:32:48.605Z,99093.69
2022-11-05T18:35:17.070Z,99090.91
2022-11-05T18:37:45.394Z,99093.25
2022-11-05T18:40:13.731Z,99087.03
2022-11-05T18:42:41.781Z,99091.72
2022-11-05T18:45:12.804Z,99090.19
2022-11-05T18:47:41.254Z,99083.91
2022-11-05T18:50:11.701Z,99090.09
2022-11-05T18:52:39.749Z,99092.81
2022-11-05T18:55:09.292Z,99090.03
2022-11-05T18:57:37.474Z,99090.78
2022-11-05T19:00:06.489Z,99088.41
2022-11-05T19:02:36.139Z,99095.00
2022-11-05T19:05:27.968Z,99096.53
2022-11-05T19:07:52.698Z,99094.16
2022-11-05T19:10:20.852Z,99094.13
2022-11-05T19:12:48.950Z,99110.78
2022-11-05T19:15:17.200Z,99101.13
2022-11-05T19:17:46.976Z,99092.50
2022-11-05T19:20:15.093Z,99102.53
2022-11-05T19:22:43.170Z,99108.41
2022-11-05T19:25:11.775Z,99102.94
2022-11-05T19:27:39.889Z,99102.84
2022-11-05T19:30:09.060Z,99105.13
2022-11-05T19:32:37.334Z,99108.94
2022-11-05T19:35:07.439Z,99104.69
2022-11-05T19:37:35.693Z,99102.28
2022-11-05T19:40:03.748Z,99112.03
2022-11-05T19:42:31.794Z,99113.13
2022-11-05T19:45:16.792Z,99108.88
2022-11-05T19:47:47.853Z,99107.25
2022-11-05T19:50:17.374Z,99114.56
2022-11-05T19:52:45.488Z,99119.59
2022-11-05T19:55:13.509Z,99121.16
2022-11-05T19:57:41.880Z,99117.25
2022-11-05T20:00:11.912Z,99126.91
2022-11-05T20:02:40.064Z,99117.94
2022-11-05T20:05:08.719Z,99124.84
2022-11-05T20:07:38.128Z,99125.56
2022-11-05T20:10:07.292Z,99127.88
2022-11-05T20:12:36.013Z,99122.44
2022-11-05T20:15:05.017Z,99121.25
2022-11-05T20:17:33.124Z,99109.22
2022-11-05T20:20:01.249Z,99119.72
2022-11-05T20:22:29.315Z,99127.47
2022-11-05T20:24:59.411Z,99118.59
2022-11-05T20:27:27.533Z,99110.41
2022-11-05T20:29:55.685Z,99129.13
2022-11-05T20:32:23.720Z,99130.66
2022-11-05T20:34:51.887Z,99125.72
2022-11-05T20:37:20.186Z,99131.88
2022-11-05T20:39:48.306Z,99128.28
2022-11-05T20:42:17.929Z,99131.34
2022-11-05T20:44:45.941Z,99133.16
2022-11-05T20:47:14.049Z,99139.69
2022-11-05T20:49:42.198Z,99143.94
2022-11-05T20:52:10.249Z,99153.97
2022-11-05T20:54:38.485Z,99157.50
2022-11-05T20:57:06.730Z,99147.38
2022-11-05T20:59:36.738Z,99164.44
2022-11-05T21:02:05.133Z,99163.25
2022-11-05T21:04:33.581Z,99161.00
2022-11-05T21:07:01.652Z,99165.06
2022-11-05T21:09:30.198Z,99168.47
2022-11-05T21:12:13.458Z,99164.88
2022-11-05T21:14:44.547Z,99160.19
2022-11-05T21:17:13.735Z,99160.41
2022-11-05T21:19:42.133Z,99161.56
2022-11-05T21:22:10.344Z,99164.97
2022-11-05T21:24:38.672Z,99160.34
2022-11-05T21:27:06.779Z,99157.56
2022-11-05T21:29:34.806Z,99166.94
2022-11-05T21:32:04.318Z,99165.28
2022-11-05T21:34:32.303Z,99167.19
2022-11-05T21:37:00.365Z,99165.25
2022-11-05T21:39:29.098Z,99163.63
2022-11-05T21:41:57.388Z,99174.44
2022-11-05T21:44:25.402Z,99174.47
2022-11-05T21:46:57.409Z,99174.47
2022-11-05T21:49:27.723Z,99164.72
2022-11-05T21:52:13.316Z,99153.41
2022-11-05T21:54:57.964Z,99165.09
2022-11-05T21:57:43.510Z,99162.72
2022-11-05T22:00:12.840Z,99157.38
2022-11-05T22:02:41.316Z,99172.19
2022-11-05T22:05:12.303Z,99160.59
2022-11-05T22:07:40.856Z,99156.53
2022-11-05T22:10:16.223Z,99175.81
2022-11-05T22:12:45.379Z,99173.69
2022-11-05T22:15:13.812Z,99173.81
2022-11-05T22:17:46.840Z,99176.72
2022-11-05T22:20:17.174Z,99180.41
2022-11-05T22:22:45.714Z,99176.19
2022-11-05T22:25:14.839Z,99176.06
2022-11-05T22:27:44.005Z,99169.50
2022-11-05T22:30:13.379Z,99171.44
2022-11-05T22:32:41.723Z,99185.00
2022-11-05T22:35:10.666Z,99176.44
2022-11-05T22:37:40.254Z,99170.94
2022-11-05T22:40:09.771Z,99157.75
2022-11-05T22:42:38.164Z,99167.06
2022-11-05T22:45:07.423Z,99162.56
2022-11-05T22:47:35.436Z,99157.72
2022-11-05T22:50:03.531Z,99168.41
2022-11-05T22:52:32.773Z,99178.00
2022-11-05T22:55:03.890Z,99171.03
2022-11-05T22:57:31.908Z,99166.72
2022-11-05T22:59:59.993Z,99167.88
2022-11-05T23:02:28.266Z,99172.47
2022-11-05T23:04:56.389Z,99171.03
2022-11-05T23:07:41.984Z,99182.22
2022-11-05T23:10:29.278Z,99180.28
2022-11-05T23:12:57.372Z,99188.06
2022-11-05T23:15:42.061Z,99194.19
2022-11-05T23:18:27.909Z,99195.69
2022-11-05T23:21:13.672Z,99201.59
2022-11-05T23:23:58.897Z,99196.34
2022-11-05T23:26:45.005Z,99205.50
2022-11-05T23:29:13.036Z,99196.66
2022-11-05T23:31:57.978Z,99201.22
2022-11-05T23:34:26.399Z,99196.81
2022-11-05T23:37:11.636Z,99186.34
2022-11-05T23:39:42.589Z,99190.91
2022-11-05T23:42:29.947Z,99197.72
2022-11-05T23:45:15.279Z,99192.78
2022-11-05T23:48:01.232Z,99187.47
2022-11-05T23:50:33.209Z,99194.94
2022-11-05T23:53:05.293Z,99193.41
2022-11-05T23:55:33.462Z,99189.53
2022-11-05T23:58:02.935Z,99194.56
